首页
METAR-TAF:

METAR-TAF

机场 :

Estevan, 薩斯喀徹溫, 加拿大

纬度: 49-13N, 经度: 102-58W, 海拔: 572米

当前天气观测

该预报发布于21分钟前的05:00 UTC
风速8节,风向东转东北
温度 8°C
湿度 76%
气压 1020 hPa
能見度: 14.5公里
天空无云

METAR: CYEN 280500Z AUTO 07008KT 9SM CLR 08/04 A3012 RMK SLP212

时间: 23:21 (05:21 UTC)

预报

该预报发布于11小时和41分钟前的17:40 UTC
预报有效从27日的 18点(UTC)到 27日的 24点(UTC)
风速8节,风向
能見度: 10公里
散云层高于7000英尺
从 27日的 1900点(UTC)
风速15节,风向西北
能見度: 10公里
多云层高于7000英尺
短暂存在
从 27日的 19点(UTC)到 27日的 24点(UTC)
能見度: 10公里
多云层高于6000英尺
小阵雨
几率 30%
从 27日的 19点(UTC)到 27日的 24点(UTC)
风速20节,风向多变,有时为30节阵风
能見度: 9.7公里
多云层高于5000英尺, 积雨云.
多云层高于12000英尺
雷暴, 雨

TAF: CYEN 271740Z 2718/2724 36008KT P6SM SCT070 FM271900 32015KT P6SM BKN070 TEMPO 2719/2724 P6SM -SHRA BKN060 PROB30 2719/2724 VRB20G30KT 6SM TSRA BKN050CB BKN120 RMK FCST BASED ON AUTO OBS. NXT FCST BY 281200Z

超过4000个机场的气象观测和天气预报(METAR&TAF报告)。

可查询的气象台以黄色和红色小点在地图上表示。

将鼠标移到小点上方,可查看气象台名称。

然后点击查看天气观测和预报。

如需切换地图:点击带黑十字的绿色按钮放大地图;点击带横线的绿色按钮缩小地图;或者点击绿色箭头查看邻近地区的地图。


METAR-TAF: